Jones - eastern half: Past 24 Hour Conditions

 

Nain Airport

07:00 AM ADT 19 April 2014
This table is a summary of hourly weather conditions for the past 24 hours.
Date / Time
(ADT)
Wind(knots) Conditions Visibility(km) Pressure(kPa) Air tempC) Relative humidity(%) Dew pointC) Wind Chill
19 April 2014
7:00 calm Sunny 24 102.2 -14 52 -22 *
6:00 calm Sunny 24 102.2 -14 54 -22 *
5:00 WSW 4 Clear 24 102.2 -12 50 -21 -17
4:00 9 gust 16 N/A N/A 102.1 -11 47 -20 -19
3:00 12 gust 20 N/A N/A 102.1 -11 51 -19 -19
2:00 3 N/A N/A 102.1 -10 54 -17 -13
1:00 13 gust 18 N/A N/A 102.0 -9 61 -15 -17
0:00 17 gust 23 N/A N/A 102.1 -8 60 -14 -17
18 April 2014
23:00 15 N/A N/A 102.1 -7 63 -13 -16
22:00 10 N/A N/A 102.1 -7 59 -13 -13
21:00 6 N/A N/A 102.1 -6 62 -12 -11
20:00 NW 15 Partly Cloudy 24 102.1 -5 71 -9 -12
19:00 NW 15 Mostly Cloudy 24 102.0 -3 65 -9 -11
18:00 WNW 17 gust 22 Mostly Cloudy 24 102.0 -2 68 -7 -9
17:00 WNW 19 Partly Cloudy 24 102.0 -1 68 -7 -9
16:00 WNW 17 Mostly Cloudy 24 102.0 -1 66 -7 -9
15:00 W 17 gust 25 Partly Cloudy 24 102.0 -2 71 -6 -9
14:00 W 16 gust 25 Mainly Sunny 24 102.0 -2 61 -9 -9
13:00 W 18 gust 24 Mainly Sunny 24 102.1 -3 69 -7 -10
12:00 WNW 16 Mainly Sunny 24 102.2 -4 67 -9 -12
11:00 WNW 10 gust 18 Mainly Sunny 24 102.2 -5 69 -10 -12
10:00 WNW 12 gust 18 Mainly Sunny 24 102.3 -6 60 -12 -13
9:00 W 4 Mainly Sunny 24 102.4 -9 61 -15 -13
8:00 WSW 5 Sunny 24 102.4 -9 65 -14 -14
7:00 S 3 Sunny 24 102.5 -9 68 -14 -12
 
Map of Arctic - Eastern Arctic marine weather areas Baker Lake Airport Chesterfield Inlet Airport Coral Harbour Airport Gjoa Haven Airport Kugaaruk Airport Rankin Inlet Airport Shepherd Bay Airport Whale Cove Airport Arctic Bay Brevoort Island Qikiqtarjuaq Airport Cape Dorset Airport Cape Dyer Cape Hooper Clyde Airport Grise Fiord Airport Hall Beach Airport Igloolik Airport Iqaluit Airport Longstaff Bluff Pangnirtung Airport Pond Inlet Airport Repulse Bay Airport Resolute Airport Resolution Island Rowley Island Airport Taloyoak Airport Wager Bay Akulivik Airport Ivujivik Airport Puvirnituq Airport Kangiqsujuaq Airport Kangirsuk Airport Quaqtaq Airport Tasiujaq Airport Cape Kakkiviak Cape Kiglapait Nain Airport Saglek Cape Mercy Kimmirut Airport Aupaluk Airport Salluit Airport Kangiqsualujjuaq Airport Fort Ross
Legend: buoyBuoy land stationLand Station